createdAt,value
2019-05-25T00:00:11.774Z,9.68
2019-05-25T00:02:40.892Z,9.55
2019-05-25T00:05:10.250Z,8.95
2019-05-25T00:07:39.338Z,8.78
2019-05-25T00:10:08.604Z,9.33
2019-05-25T00:12:37.736Z,9.50
2019-05-25T00:15:07.857Z,8.80
2019-05-25T00:17:38.236Z,8.83
2019-05-25T00:20:07.889Z,8.40
2019-05-25T00:22:38.001Z,9.30
2019-05-25T00:25:09.759Z,10.03
2019-05-25T00:27:38.853Z,9.55
2019-05-25T00:30:08.364Z,10.00
2019-05-25T00:32:37.464Z,10.23
2019-05-25T00:35:06.970Z,9.45
2019-05-25T00:37:36.053Z,9.28
2019-05-25T00:40:06.192Z,9.20
2019-05-25T00:42:34.858Z,8.93
2019-05-25T00:45:04.572Z,8.93
2019-05-25T00:47:33.194Z,9.03
2019-05-25T00:50:01.834Z,8.85
2019-05-25T00:52:30.442Z,10.32
2019-05-25T00:55:00.127Z,10.98
2019-05-25T00:57:28.831Z,10.48
2019-05-25T00:59:57.424Z,10.00
2019-05-25T01:02:26.105Z,9.48
2019-05-25T01:04:54.764Z,9.43
2019-05-25T01:07:25.931Z,8.80
2019-05-25T01:09:54.613Z,8.05
2019-05-25T01:12:23.279Z,7.35
2019-05-25T01:14:52.375Z,7.85
2019-05-25T01:17:25.563Z,7.22
2019-05-25T01:19:57.954Z,7.47
2019-05-25T01:22:26.545Z,6.83
2019-05-25T01:24:55.239Z,5.97
2019-05-25T01:27:23.890Z,7.03
2019-05-25T01:29:52.496Z,7.53
2019-05-25T01:32:22.186Z,7.62
2019-05-25T01:34:53.248Z,8.10
2019-05-25T01:37:22.934Z,7.37
2019-05-25T01:39:51.563Z,7.65
2019-05-25T01:42:20.200Z,7.53
2019-05-25T01:44:48.801Z,7.60
2019-05-25T01:47:17.479Z,8.10
2019-05-25T01:49:47.179Z,8.55
2019-05-25T01:52:15.822Z,8.83
2019-05-25T01:54:58.825Z,8.88
2019-05-25T01:57:14.776Z,8.60
2019-05-25T01:59:43.459Z,8.78
2019-05-25T02:02:12.146Z,9.03
2019-05-25T02:04:40.738Z,9.10
2019-05-25T02:07:09.425Z,8.00
2019-05-25T02:09:41.836Z,7.10
2019-05-25T02:12:11.459Z,7.70
2019-05-25T02:14:42.623Z,7.37
2019-05-25T02:17:11.240Z,6.60
2019-05-25T02:19:39.827Z,6.87
2019-05-25T02:22:08.585Z,6.97
2019-05-25T02:24:37.201Z,7.20
2019-05-25T02:27:05.962Z,6.97
2019-05-25T02:29:34.588Z,6.50
2019-05-25T02:32:03.138Z,6.60
2019-05-25T02:34:31.876Z,7.10
2019-05-25T02:37:00.511Z,7.17
2019-05-25T02:39:30.409Z,7.25
2019-05-25T02:41:59.104Z,7.28
2019-05-25T02:44:30.604Z,7.62
2019-05-25T02:46:58.014Z,7.75
2019-05-25T02:49:26.630Z,7.20
2019-05-25T02:51:55.388Z,7.20
2019-05-25T02:54:23.972Z,7.53
2019-05-25T02:56:52.873Z,7.40
2019-05-25T02:59:22.581Z,7.37
2019-05-25T03:01:51.237Z,7.22
2019-05-25T03:04:19.944Z,7.97
2019-05-25T03:06:49.651Z,7.70
2019-05-25T03:09:18.865Z,8.13
2019-05-25T03:11:48.973Z,7.85
2019-05-25T03:14:20.008Z,8.15
2019-05-25T03:16:48.686Z,8.33
2019-05-25T03:19:17.367Z,8.53
2019-05-25T03:21:49.854Z,8.00
2019-05-25T03:24:18.430Z,8.78
2019-05-25T03:26:47.121Z,8.70
2019-05-25T03:29:15.789Z,9.58
2019-05-25T03:31:46.033Z,9.68
2019-05-25T03:34:14.624Z,10.72
2019-05-25T03:36:46.061Z,10.95
2019-05-25T03:39:14.729Z,11.43
2019-05-25T03:41:44.363Z,11.83
2019-05-25T03:44:14.472Z,12.70
2019-05-25T03:46:43.050Z,12.28
2019-05-25T03:49:11.644Z,12.43
2019-05-25T03:51:40.220Z,12.85
2019-05-25T03:54:08.819Z,13.62
2019-05-25T03:56:38.571Z,12.90
2019-05-25T03:59:07.300Z,13.85
2019-05-25T04:01:35.883Z,20.08
2019-05-25T04:04:04.547Z,29.18
2019-05-25T04:06:34.671Z,22.55
2019-05-25T04:09:04.807Z,25.48
2019-05-25T04:11:34.418Z,26.30
2019-05-25T04:14:03.078Z,21.85
2019-05-25T04:16:31.685Z,18.32
2019-05-25T04:19:01.344Z,15.05
2019-05-25T04:21:31.064Z,13.88
2019-05-25T04:23:59.779Z,11.95
2019-05-25T04:26:28.556Z,11.80
2019-05-25T04:28:57.171Z,12.47
2019-05-25T04:31:25.740Z,11.95
2019-05-25T04:33:58.251Z,11.30
2019-05-25T04:36:26.980Z,11.50
2019-05-25T04:38:55.585Z,10.68
2019-05-25T04:41:24.169Z,11.43
2019-05-25T04:43:52.754Z,10.93
2019-05-25T04:46:21.716Z,10.55
2019-05-25T04:48:50.536Z,10.05
2019-05-25T04:51:19.213Z,10.15
2019-05-25T04:53:47.880Z,10.80
2019-05-25T04:56:20.029Z,11.22
2019-05-25T04:58:48.754Z,10.03
2019-05-25T05:01:17.419Z,10.13
2019-05-25T05:03:50.876Z,10.03
2019-05-25T05:06:19.522Z,10.75
2019-05-25T05:08:48.099Z,10.03
2019-05-25T05:11:19.246Z,10.43
2019-05-25T05:13:47.924Z,11.33
2019-05-25T05:16:16.515Z,10.53
2019-05-25T05:18:46.202Z,11.05
2019-05-25T05:21:14.807Z,11.18
2019-05-25T05:23:46.970Z,12.03
2019-05-25T05:26:15.555Z,11.33
2019-05-25T05:28:44.143Z,10.80
2019-05-25T05:31:23.286Z,11.18
2019-05-25T05:33:44.253Z,11.08
2019-05-25T05:36:13.584Z,11.78
2019-05-25T05:38:42.244Z,10.65
2019-05-25T05:41:11.334Z,10.88
2019-05-25T05:43:41.148Z,10.93
2019-05-25T05:46:09.932Z,10.10
2019-05-25T05:48:40.005Z,10.65
2019-05-25T05:51:10.644Z,11.08
2019-05-25T05:53:39.394Z,11.33
2019-05-25T05:56:07.999Z,11.57
2019-05-25T05:58:36.556Z,10.13
2019-05-25T06:01:05.133Z,10.85
2019-05-25T06:03:33.736Z,9.38
2019-05-25T06:06:02.383Z,9.83
2019-05-25T06:08:30.987Z,10.03
2019-05-25T06:10:59.665Z,10.25
2019-05-25T06:13:28.258Z,9.35
2019-05-25T06:15:56.873Z,9.03
2019-05-25T06:18:25.608Z,8.03
2019-05-25T06:20:55.316Z,8.53
2019-05-25T06:23:23.950Z,7.78
2019-05-25T06:25:52.996Z,7.40
2019-05-25T06:28:22.606Z,7.12
2019-05-25T06:30:51.821Z,6.70
2019-05-25T06:33:20.909Z,6.55
2019-05-25T06:35:49.579Z,6.55
2019-05-25T06:38:18.187Z,6.47
2019-05-25T06:40:46.760Z,6.12
2019-05-25T06:43:16.809Z,6.28
2019-05-25T06:45:45.563Z,6.45
2019-05-25T06:48:14.643Z,6.17
2019-05-25T06:50:43.749Z,4.78
2019-05-25T06:53:12.831Z,5.30
2019-05-25T06:55:41.516Z,5.10
2019-05-25T06:58:10.612Z,5.00
2019-05-25T07:00:39.708Z,4.65
2019-05-25T07:03:08.802Z,4.42
2019-05-25T07:05:37.915Z,4.15
2019-05-25T07:08:09.050Z,4.03
2019-05-25T07:10:38.748Z,4.50
2019-05-25T07:13:07.864Z,4.60
2019-05-25T07:15:36.938Z,4.83
2019-05-25T07:18:05.931Z,4.70
2019-05-25T07:20:35.132Z,5.95
2019-05-25T07:23:04.222Z,4.97
2019-05-25T07:25:33.317Z,4.33
2019-05-25T07:28:02.413Z,4.87
2019-05-25T07:30:31.510Z,4.80
2019-05-25T07:33:00.604Z,4.58
2019-05-25T07:35:29.698Z,5.03
2019-05-25T07:37:58.797Z,4.92
2019-05-25T07:40:27.890Z,4.97
2019-05-25T07:42:56.983Z,4.97
2019-05-25T07:45:26.181Z,4.60
2019-05-25T07:47:55.286Z,4.37
2019-05-25T07:50:24.476Z,4.40
2019-05-25T07:52:53.672Z,4.17
2019-05-25T07:55:24.408Z,4.15
2019-05-25T07:57:53.506Z,4.30
2019-05-25T08:00:22.697Z,3.85
2019-05-25T08:02:51.891Z,3.90
2019-05-25T08:05:20.988Z,4.10
2019-05-25T08:07:52.694Z,3.60
2019-05-25T08:10:21.947Z,3.62
2019-05-25T08:12:52.068Z,3.42
2019-05-25T08:15:22.182Z,3.15
2019-05-25T08:17:51.273Z,3.08
2019-05-25T08:20:20.782Z,3.62
2019-05-25T08:22:50.028Z,3.27
2019-05-25T08:25:21.715Z,3.90
2019-05-25T08:27:50.920Z,3.80
2019-05-25T08:30:20.026Z,3.45
2019-05-25T08:32:49.120Z,3.37
2019-05-25T08:35:19.447Z,3.42
2019-05-25T08:37:50.901Z,3.22
2019-05-25T08:40:19.988Z,3.30
2019-05-25T08:42:49.085Z,3.50
2019-05-25T08:45:19.104Z,2.80
2019-05-25T08:47:48.197Z,2.60
2019-05-25T08:50:17.372Z,2.50
2019-05-25T08:52:46.488Z,2.33
2019-05-25T08:55:18.866Z,2.25
2019-05-25T08:57:50.390Z,2.70
2019-05-25T09:00:19.774Z,2.10
2019-05-25T09:02:50.345Z,2.17
2019-05-25T09:05:18.952Z,2.62
2019-05-25T09:07:48.122Z,3.67
2019-05-25T09:10:18.242Z,3.58
2019-05-25T09:12:47.342Z,4.47
2019-05-25T09:15:16.633Z,3.58
2019-05-25T09:17:45.833Z,3.22
2019-05-25T09:20:15.235Z,2.62
2019-05-25T09:22:44.332Z,3.40
2019-05-25T09:25:13.531Z,2.60
2019-05-25T09:27:43.543Z,2.37
2019-05-25T09:30:12.856Z,2.05
2019-05-25T09:32:41.938Z,2.00
2019-05-25T09:35:11.279Z,2.17
2019-05-25T09:37:40.362Z,3.27
2019-05-25T09:40:09.747Z,1.50
2019-05-25T09:42:39.123Z,2.52
2019-05-25T09:45:13.923Z,1.85
2019-05-25T09:47:45.321Z,2.40
2019-05-25T09:50:14.741Z,1.20
2019-05-25T09:52:43.814Z,1.20
2019-05-25T09:55:13.315Z,1.80
2019-05-25T09:57:42.412Z,2.37
2019-05-25T10:00:13.604Z,2.42
2019-05-25T10:02:47.036Z,1.90
2019-05-25T10:05:16.665Z,1.80
2019-05-25T10:07:48.333Z,1.05
2019-05-25T10:10:17.744Z,0.75
2019-05-25T10:12:46.812Z,1.05
2019-05-25T10:15:16.022Z,1.20
2019-05-25T10:17:45.041Z,0.70
2019-05-25T10:20:14.458Z,1.12
2019-05-25T10:22:47.700Z,0.90
2019-05-25T10:25:17.430Z,1.37
2019-05-25T10:27:46.514Z,1.10
2019-05-25T10:30:16.192Z,0.98
2019-05-25T10:32:45.307Z,3.02
2019-05-25T10:35:15.097Z,1.10
2019-05-25T10:37:44.212Z,3.52
2019-05-25T10:40:15.901Z,1.85
2019-05-25T10:42:45.067Z,2.30
2019-05-25T10:45:14.931Z,1.90
2019-05-25T10:47:44.072Z,1.65
2019-05-25T10:50:14.705Z,1.47
2019-05-25T10:52:43.901Z,1.00
2019-05-25T10:55:13.729Z,2.70
2019-05-25T10:57:42.812Z,1.98
2019-05-25T11:00:12.944Z,1.10
2019-05-25T11:02:42.022Z,1.98
2019-05-25T11:05:13.340Z,2.80
2019-05-25T11:07:42.465Z,1.20
2019-05-25T11:10:13.481Z,1.98
2019-05-25T11:12:42.601Z,1.50
2019-05-25T11:15:12.002Z,1.85
2019-05-25T11:17:42.228Z,0.60
2019-05-25T11:20:12.465Z,1.87
2019-05-25T11:22:41.554Z,1.22
2019-05-25T11:25:10.854Z,1.45
2019-05-25T11:27:42.949Z,1.15
2019-05-25T11:30:17.585Z,0.85
2019-05-25T11:32:50.977Z,1.20
2019-05-25T11:35:22.478Z,1.30
2019-05-25T11:37:51.574Z,0.50
2019-05-25T11:40:22.993Z,0.80
2019-05-25T11:42:56.777Z,0.93
2019-05-25T11:45:23.432Z,1.05
2019-05-25T11:47:52.510Z,0.82
2019-05-25T11:50:22.004Z,0.75
2019-05-25T11:52:51.168Z,0.70
2019-05-25T11:55:20.254Z,0.90
2019-05-25T11:57:49.347Z,1.15
2019-05-25T12:00:25.343Z,1.20
2019-05-25T12:02:50.814Z,1.00
2019-05-25T12:05:20.345Z,1.42
2019-05-25T12:07:50.539Z,0.50
2019-05-25T12:10:21.273Z,1.12
2019-05-25T12:12:50.473Z,1.00
2019-05-25T12:15:19.755Z,0.72
2019-05-25T12:17:48.949Z,1.12
2019-05-25T12:20:18.480Z,0.98
2019-05-25T12:22:47.568Z,0.80
2019-05-25T12:25:16.977Z,0.90
2019-05-25T12:27:48.994Z,0.90
2019-05-25T12:30:19.034Z,1.32
2019-05-25T12:32:51.117Z,0.90
2019-05-25T12:35:20.620Z,1.00
2019-05-25T12:37:49.817Z,1.15
2019-05-25T12:40:19.116Z,0.75
2019-05-25T12:42:48.211Z,1.12
2019-05-25T12:45:17.446Z,1.02
2019-05-25T12:47:46.503Z,0.80
2019-05-25T12:50:15.802Z,0.60
2019-05-25T12:52:48.753Z,0.70
2019-05-25T12:55:18.094Z,1.57
2019-05-25T12:57:47.184Z,0.90
2019-05-25T13:00:18.021Z,0.65
2019-05-25T13:02:47.113Z,1.35
2019-05-25T13:05:16.414Z,1.02
2019-05-25T13:07:45.404Z,0.88
2019-05-25T13:10:14.799Z,0.90
2019-05-25T13:12:43.905Z,1.00
2019-05-25T13:15:13.073Z,0.50
2019-05-25T13:17:44.861Z,1.00
2019-05-25T13:20:14.573Z,0.68
2019-05-25T13:22:43.764Z,0.80
2019-05-25T13:25:12.974Z,0.50
2019-05-25T13:27:42.059Z,1.12
2019-05-25T13:30:11.361Z,1.02
2019-05-25T13:32:40.452Z,0.80
2019-05-25T13:35:10.092Z,0.80
2019-05-25T13:37:39.360Z,1.15
2019-05-25T13:40:08.664Z,1.02
2019-05-25T13:42:37.751Z,1.02
2019-05-25T13:45:09.206Z,1.22
2019-05-25T13:47:38.403Z,0.93
2019-05-25T13:50:09.396Z,0.90
2019-05-25T13:52:38.645Z,2.35
2019-05-25T13:55:08.267Z,2.27
2019-05-25T13:57:37.690Z,2.20
2019-05-25T14:00:10.235Z,1.50
2019-05-25T14:02:39.321Z,1.10
2019-05-25T14:05:09.437Z,1.20
2019-05-25T14:07:38.837Z,1.05
2019-05-25T14:10:11.414Z,1.10
2019-05-25T14:12:40.426Z,1.05
2019-05-25T14:15:10.583Z,2.02
2019-05-25T14:17:39.830Z,1.90
2019-05-25T14:20:10.467Z,1.25
2019-05-25T14:22:39.562Z,1.70
2019-05-25T14:25:09.789Z,1.00
2019-05-25T14:27:38.885Z,1.10
2019-05-25T14:30:08.888Z,1.20
2019-05-25T14:32:45.361Z,1.35
2019-05-25T14:35:14.662Z,1.10
2019-05-25T14:37:50.039Z,1.60
2019-05-25T14:40:19.201Z,1.20
2019-05-25T14:42:51.782Z,1.00
2019-05-25T14:45:21.007Z,1.35
2019-05-25T14:47:53.715Z,1.30
2019-05-25T14:50:23.786Z,1.20
2019-05-25T14:52:52.959Z,1.32
2019-05-25T14:55:23.956Z,1.35
2019-05-25T14:57:52.992Z,1.50
2019-05-25T15:00:22.193Z,1.22
2019-05-25T15:02:54.696Z,1.60
2019-05-25T15:05:23.348Z,0.95
2019-05-25T15:07:51.949Z,1.50
2019-05-25T15:10:20.616Z,1.05
2019-05-25T15:12:49.215Z,4.65
2019-05-25T15:15:18.015Z,2.80
2019-05-25T15:17:46.591Z,1.50
2019-05-25T15:20:15.525Z,3.90
2019-05-25T15:22:46.812Z,4.87
2019-05-25T15:25:14.590Z,2.05
2019-05-25T15:27:43.171Z,1.47
2019-05-25T15:30:12.148Z,1.45
2019-05-25T15:32:40.831Z,1.60
2019-05-25T15:35:11.892Z,1.32
2019-05-25T15:37:40.558Z,1.70
2019-05-25T15:40:09.961Z,1.50
2019-05-25T15:42:38.563Z,1.87
2019-05-25T15:45:07.440Z,1.47
2019-05-25T15:47:42.277Z,1.60
2019-05-25T15:50:11.662Z,1.27
2019-05-25T15:52:40.270Z,1.20
2019-05-25T15:55:09.136Z,1.60
2019-05-25T15:57:39.185Z,1.67
2019-05-25T16:00:09.288Z,2.47
2019-05-25T16:02:40.228Z,2.20
2019-05-25T16:05:09.219Z,2.10
2019-05-25T16:07:39.235Z,1.80
2019-05-25T16:10:09.529Z,1.80
2019-05-25T16:12:38.142Z,1.42
2019-05-25T16:15:09.283Z,1.52
2019-05-25T16:17:38.791Z,1.90
2019-05-25T16:20:07.703Z,1.87
2019-05-25T16:22:36.259Z,1.60
2019-05-25T16:25:06.407Z,1.40
2019-05-25T16:27:34.987Z,2.10
2019-05-25T16:30:07.421Z,1.70
2019-05-25T16:33:07.229Z,1.98
2019-05-25T16:35:06.741Z,1.35
2019-05-25T16:37:35.637Z,1.90
2019-05-25T16:40:06.058Z,1.50
2019-05-25T16:42:34.680Z,1.30
2019-05-25T16:45:05.927Z,1.50
2019-05-25T16:47:35.489Z,1.40
2019-05-25T16:50:09.544Z,1.40
2019-05-25T16:52:38.615Z,1.20
2019-05-25T16:55:09.429Z,1.27
2019-05-25T16:57:38.545Z,1.50
2019-05-25T17:00:09.876Z,1.30
2019-05-25T17:02:38.969Z,1.30
2019-05-25T17:05:10.026Z,1.20
2019-05-25T17:07:38.793Z,0.98
2019-05-25T17:10:07.706Z,1.12
2019-05-25T17:12:37.397Z,0.90
2019-05-25T17:15:06.593Z,1.15
2019-05-25T17:17:35.190Z,0.88
2019-05-25T17:20:04.403Z,1.00
2019-05-25T17:22:33.065Z,1.02
2019-05-25T17:25:01.749Z,0.80
2019-05-25T17:27:30.347Z,0.80
2019-05-25T17:29:58.927Z,1.00
2019-05-25T17:32:27.631Z,0.80
2019-05-25T17:34:56.296Z,0.98
2019-05-25T17:37:25.479Z,0.90
2019-05-25T17:39:54.572Z,0.82
2019-05-25T17:42:23.664Z,0.93
2019-05-25T17:44:52.762Z,0.90
2019-05-25T17:47:21.959Z,1.00
2019-05-25T17:49:51.054Z,1.10
2019-05-25T17:52:22.687Z,0.93
2019-05-25T17:54:50.870Z,1.05
2019-05-25T17:57:20.080Z,0.90
2019-05-25T17:59:49.173Z,1.40
2019-05-25T18:02:17.774Z,1.37
2019-05-25T18:04:46.444Z,1.40
2019-05-25T18:07:15.435Z,1.30
2019-05-25T18:09:47.995Z,1.12
2019-05-25T18:12:16.610Z,1.20
2019-05-25T18:14:45.278Z,1.85
2019-05-25T18:17:14.380Z,1.82
2019-05-25T18:19:43.077Z,1.40
2019-05-25T18:22:11.845Z,1.32
2019-05-25T18:24:41.474Z,1.17
2019-05-25T18:27:10.131Z,1.05
2019-05-25T18:29:39.338Z,1.30
2019-05-25T18:32:08.036Z,1.17
2019-05-25T18:34:36.705Z,1.32
2019-05-25T18:37:06.181Z,1.30
2019-05-25T18:39:34.752Z,1.35
2019-05-25T18:42:03.408Z,1.47
2019-05-25T18:44:32.075Z,1.27
2019-05-25T18:47:00.773Z,1.47
2019-05-25T18:49:29.637Z,1.30
2019-05-25T18:51:58.251Z,1.45
2019-05-25T18:54:26.955Z,1.55
2019-05-25T18:56:57.029Z,0.93
2019-05-25T18:59:25.709Z,1.30
2019-05-25T19:01:54.494Z,1.30
2019-05-25T19:04:42.096Z,1.55
2019-05-25T19:06:55.688Z,1.30
2019-05-25T19:09:25.250Z,1.22
2019-05-25T19:11:54.844Z,1.10
2019-05-25T19:14:24.170Z,0.95
2019-05-25T19:16:53.346Z,0.90
2019-05-25T19:19:22.649Z,1.17
2019-05-25T19:21:51.680Z,0.80
2019-05-25T19:24:24.237Z,1.10
2019-05-25T19:26:55.168Z,1.15
2019-05-25T19:29:27.755Z,1.00
2019-05-25T19:31:56.846Z,1.12
2019-05-25T19:34:28.510Z,1.12
2019-05-25T19:37:03.774Z,0.93
2019-05-25T19:39:29.458Z,1.15
2019-05-25T19:41:58.552Z,1.27
2019-05-25T19:44:28.335Z,1.10
2019-05-25T19:46:58.523Z,1.30
2019-05-25T19:49:27.271Z,1.15
2019-05-25T19:51:59.335Z,0.98
2019-05-25T19:54:28.894Z,1.00
2019-05-25T19:56:58.063Z,0.80
2019-05-25T19:59:27.130Z,0.95
2019-05-25T20:01:56.377Z,0.98
2019-05-25T20:04:29.019Z,0.90
2019-05-25T20:06:58.203Z,1.35
2019-05-25T20:09:27.408Z,1.37
2019-05-25T20:11:56.806Z,1.45
2019-05-25T20:14:28.586Z,1.02
2019-05-25T20:16:58.866Z,1.32
2019-05-25T20:19:28.182Z,1.02
2019-05-25T20:21:58.997Z,1.17
2019-05-25T20:24:28.626Z,1.10
2019-05-25T20:27:01.338Z,1.17
2019-05-25T20:29:28.354Z,0.90
2019-05-25T20:31:57.451Z,1.10
2019-05-25T20:34:26.540Z,1.10
2019-05-25T20:36:55.636Z,1.20
2019-05-25T20:39:24.826Z,1.20
2019-05-25T20:41:54.134Z,1.20
2019-05-25T20:44:23.230Z,1.10
2019-05-25T20:46:53.465Z,1.37
2019-05-25T20:49:24.044Z,1.10
2019-05-25T20:51:52.356Z,1.07
2019-05-25T20:54:21.202Z,1.20
2019-05-25T20:56:54.139Z,1.27
2019-05-25T20:59:25.183Z,1.37
2019-05-25T21:01:53.956Z,1.15
2019-05-25T21:04:22.581Z,1.30
2019-05-25T21:06:51.145Z,1.20
2019-05-25T21:09:19.812Z,0.90
2019-05-25T21:11:48.420Z,1.22
2019-05-25T21:14:18.101Z,1.37
2019-05-25T21:16:48.036Z,1.00
2019-05-25T21:19:17.112Z,0.93
2019-05-25T21:21:46.210Z,1.42
2019-05-25T21:24:15.410Z,1.20
2019-05-25T21:26:49.436Z,1.15
2019-05-25T21:29:19.532Z,1.20
2019-05-25T21:31:48.626Z,1.20
2019-05-25T21:34:17.720Z,1.10
2019-05-25T21:36:51.907Z,1.35
2019-05-25T21:39:20.644Z,1.20
2019-05-25T21:41:50.154Z,1.25
2019-05-25T21:44:18.811Z,1.27
2019-05-25T21:46:48.724Z,1.10
2019-05-25T21:49:17.325Z,1.50
2019-05-25T21:51:47.205Z,1.55
2019-05-25T21:54:15.824Z,1.27
2019-05-25T21:56:45.927Z,1.42
2019-05-25T21:59:14.530Z,1.42
2019-05-25T22:01:43.110Z,1.40
2019-05-25T22:04:11.727Z,1.90
2019-05-25T22:06:42.814Z,1.45
2019-05-25T22:09:11.604Z,1.30
2019-05-25T22:11:40.259Z,1.45
2019-05-25T22:14:09.807Z,1.57
2019-05-25T22:16:39.273Z,1.40
2019-05-25T22:19:11.789Z,1.37
2019-05-25T22:21:40.869Z,1.20
2019-05-25T22:24:09.961Z,1.32
2019-05-25T22:26:38.960Z,1.32
2019-05-25T22:29:13.304Z,1.40
2019-05-25T22:31:46.677Z,1.67
2019-05-25T22:34:15.864Z,1.47
2019-05-25T22:36:44.858Z,1.47
2019-05-25T22:39:14.057Z,1.40
2019-05-25T22:41:43.956Z,1.55
2019-05-25T22:44:13.067Z,1.60
2019-05-25T22:46:42.160Z,1.50
2019-05-25T22:49:12.279Z,1.82
2019-05-25T22:51:41.371Z,1.82
2019-05-25T22:54:10.470Z,1.90
2019-05-25T22:56:42.840Z,1.57
2019-05-25T22:59:11.936Z,1.70
2019-05-25T23:01:41.031Z,1.57
2019-05-25T23:04:10.058Z,1.70
2019-05-25T23:06:56.058Z,1.90
2019-05-25T23:09:12.723Z,2.20
2019-05-25T23:11:41.315Z,2.52
2019-05-25T23:14:10.083Z,2.25
2019-05-25T23:16:38.791Z,2.80
2019-05-25T23:19:07.465Z,3.45
2019-05-25T23:21:40.076Z,3.55
2019-05-25T23:24:08.819Z,3.43
2019-05-25T23:26:38.645Z,3.10
2019-05-25T23:29:08.282Z,2.87
2019-05-25T23:31:36.838Z,2.60
2019-05-25T23:34:05.426Z,2.77
2019-05-25T23:36:34.117Z,2.75
2019-05-25T23:39:02.693Z,3.00
2019-05-25T23:41:31.360Z,2.70
2019-05-25T23:44:00.892Z,2.50
2019-05-25T23:46:29.582Z,2.90
2019-05-25T23:48:58.153Z,2.52
2019-05-25T23:51:26.736Z,2.40
2019-05-25T23:53:56.327Z,2.65
2019-05-25T23:56:24.876Z,2.90
2019-05-25T23:58:53.588Z,3.15
